Latest Weather Observations for Cleve Airport

IDS60801

Issued at 7:01 pm CST Thursday 30 May 2024 (issued every 10 minutes, with the page automatically refreshed every 10 minutes)

About weather observations | Map of weather stations | Latest weather observations for SA | Other Formats
Station Details ID: 018116 Name: CLEVE AERODROME Lat: -33.71 Lon: 136.50 Height: 175.0 m
Data from the previous 72 hours. | See also: Recent months at Cleve Airport
Date/Time
CST
Temp
°C
App
Temp
°C
Dew
Point
°C
Rel
Hum
%
Delta-T
°C
Wind Press
QNH
hPa
Press
MSL
hPa
Rain since
9am
mm
Dir  Spd
km/h
Gust
km/h
Spd
kts
Gust
kts
30/06:53pm 12.8 6.5 5.5 61 3.4 NW 28 48 15 26 1012.3 1012.1 0.0
30/06:30pm 13.2 6.8 5.4 59 3.7 WNW 28 39 15 21 1011.9 1011.8 0.0
30/06:00pm 13.8 6.7 6.2 60 3.7 WNW 33 46 18 25 1011.4 1011.3 0.0
30/05:30pm 14.4 7.5 6.5 59 3.9 WNW 32 46 17 25 1010.9 1010.7 0.0
30/05:00pm 15.3 9.1 6.3 55 4.4 WNW 28 43 15 23 1010.6 1010.4 0.0
30/04:30pm 16.2 8.3 6.3 52 4.9 WNW 37 50 20 27 1010.1 1009.9 0.0
30/04:08pm 16.5 9.4 6.3 51 5.0 WNW 33 57 18 31 1009.7 1009.5 0.0
30/04:00pm 16.8 10.0 6.9 52 4.9 WNW 32 46 17 25 1009.7 1009.5 0.0
30/03:30pm 16.8 9.9 7.4 54 4.8 WNW 33 52 18 28 1009.3 1009.1 0.0
30/03:03pm 17.1 9.8 7.2 52 5.0 NW 35 54 19 29 1008.9 1008.7 0.0
30/03:00pm 17.0 9.2 6.8 51 5.1 NW 37 52 20 28 1008.9 1008.7 0.0
30/02:30pm 17.2 10.2 6.7 50 5.3 NW 33 48 18 26 1008.2 1008.0 0.0
30/02:13pm 16.9 9.9 7.0 52 5.0 WNW 33 52 18 28 1008.0 1007.8 0.0
30/02:00pm 16.6 9.3 7.3 54 4.7 WNW 35 50 19 27 1008.3 1008.1 0.0
30/01:38pm 17.0 10.2 7.6 54 4.8 WNW 33 52 18 28 1008.4 1008.2 0.0
30/01:30pm 16.8 10.0 7.7 55 4.6 WNW 33 46 18 25 1008.5 1008.3 0.0
30/01:14pm 16.6 9.8 7.8 56 4.5 NW 33 52 18 28 1008.6 1008.4 0.0
30/01:00pm 16.9 10.4 8.3 57 4.4 WNW 32 48 17 26 1008.9 1008.7 0.0
30/12:43pm 16.8 10.0 7.7 55 4.6 WNW 33 54 18 29 1009.0 1008.8 0.0
30/12:30pm 16.5 9.8 8.2 58 4.3 WNW 33 50 18 27 1009.0 1008.8 0.0
30/12:10pm 16.4 9.5 8.9 61 3.9 WNW 35 54 19 29 1009.1 1008.9 0.0
30/12:00pm 16.5 10.4 9.7 64 3.6 WNW 32 48 17 26 1009.2 1009.0 0.0
30/11:41am 16.7 10.8 10.5 67 3.3 WNW 32 50 17 27 1009.1 1008.9 0.0
30/11:30am 16.0 9.8 9.2 64 3.5 WNW 32 46 17 25 1009.3 1009.1 0.0
30/11:00am 15.7 10.3 10.9 73 2.6 NW 30 44 16 24 1009.7 1009.5 0.0
30/10:30am 15.2 9.5 11.0 76 2.3 NW 32 48 17 26 1009.9 1009.7 0.0
30/10:00am 14.7 8.8 11.1 79 1.9 NW 33 44 18 24 1009.9 1009.7 0.0
30/09:30am 13.7 8.3 11.0 84 1.4 NW 30 39 16 21 1009.9 1009.7 0.0
30/09:00am 12.9 7.3 10.3 84 1.4 NW 30 43 16 23 1010.0 1009.8 4.4
30/08:30am 12.6 7.5 10.7 88 1.0 NW 28 37 15 20 1010.0 1009.8 4.4
30/08:00am 12.7 6.6 10.4 86 1.2 NW 33 48 18 26 1010.3 1010.1 4.4
30/07:30am 12.9 7.2 11.0 88 1.0 W 32 50 17 27 1009.8 1009.6 4.0
30/07:00am 15.2 10.1 13.2 88 1.1 NW 32 44 17 24 1009.2 1009.0 4.0
30/06:30am 15.1 10.1 13.3 89 1.0 NW 32 52 17 28 1009.0 1008.8 3.8
30/06:26am 15.1 10.1 13.3 89 1.0 NW 32 52 17 28 1009.1 1008.9 3.8
30/06:00am 15.2 10.2 13.4 89 1.0 NW 32 44 17 24 1008.9 1008.7 2.8
30/05:32am 15.2 10.1 13.2 88 1.1 NW 32 50 17 27 1008.6 1008.4 2.4
30/05:30am 15.2 9.9 13.2 88 1.1 NW 33 50 18 27 1008.6 1008.4 2.4
30/05:02am 15.1 9.8 13.1 88 1.1 NW 33 52 18 28 1008.6 1008.4 2.0
30/05:00am 15.2 9.5 13.1 87 1.2 NW 35 52 19 28 1008.7 1008.5 1.8
30/04:30am 15.3 8.8 13.0 86 1.3 NW 39 59 21 32 1009.1 1008.9 1.0
30/04:22am 15.6 9.9 12.9 84 1.5 NW 35 56 19 30 1008.9 1008.7 0.0
30/04:00am 15.6 10.7 12.5 82 1.7 NW 30 46 16 25 1009.0 1008.8 0.0
30/03:51am 15.8 11.3 12.5 81 1.8 NW 28 46 15 25 1009.2 1009.0 0.0
30/03:30am 16.1 11.8 12.1 77 2.2 NW 26 39 14 21 1009.3 1009.1 0.0
30/03:00am 16.2 12.1 11.4 73 2.6 NW 24 35 13 19 1009.3 1009.1 0.0
30/02:30am 16.7 10.8 10.3 66 3.4 NW 32 43 17 23 1009.4 1009.2 0.0
30/02:00am 18.0 12.6 8.0 52 5.1 NW 26 39 14 21 1009.2 1009.0 0.0
30/01:30am 18.4 12.9 7.5 49 5.6 NNW 26 37 14 20 1009.1 1008.9 0.0
30/01:09am 19.4 12.5 6.5 43 6.5 NW 32 52 17 28 1009.3 1009.1 0.0
30/01:00am 19.9 12.8 6.3 41 6.9 NNW 33 46 18 25 1008.8 1008.6 0.0
30/12:30am 20.8 11.3 4.0 33 8.2 N 43 61 23 33 1007.6 1007.4 0.0
30/12:00am 20.6 11.1 3.8 33 8.1 N 43 61 23 33 1007.7 1007.5 0.0
 
Date/Time
CST
Temp
°C
App
Temp
°C
Dew
Point
°C
Rel
Hum
%
Delta-T
°C
Wind Press
QNH
hPa
Press
MSL
hPa
Rain since
9am
mm
Dir  Spd
km/h
Gust
km/h
Spd
kts
Gust
kts
29/11:52pm 20.5 11.3 3.7 33 8.1 N 41 61 22 33 1007.7 1007.5 0.0
29/11:30pm 20.1 10.3 3.3 33 8.0 N 44 57 24 31 1008.0 1007.8 0.0
29/11:11pm 20.5 11.3 3.7 33 8.1 N 41 59 22 32 1008.4 1008.2 0.0
29/11:00pm 20.3 11.1 3.5 33 8.0 N 41 57 22 31 1008.7 1008.5 0.0
29/10:45pm 20.4 10.8 3.6 33 8.1 N 43 61 23 33 1008.9 1008.7 0.0
29/10:30pm 19.9 10.7 3.6 34 7.8 N 41 56 22 30 1009.3 1009.1 0.0
29/10:00pm 19.3 10.9 3.9 36 7.4 N 37 48 20 26 1010.0 1009.8 0.0
29/09:49pm 19.5 10.7 3.6 35 7.6 N 39 57 21 31 1010.1 1009.9 0.0
29/09:30pm 19.7 10.9 3.4 34 7.8 N 39 54 21 29 1010.2 1010.0 0.0
29/09:00pm 19.8 11.4 3.5 34 7.8 N 37 48 20 26 1010.5 1010.3 0.0
29/08:30pm 19.9 11.5 3.6 34 7.8 N 37 48 20 26 1010.7 1010.5 0.0
29/08:00pm 19.9 11.0 3.2 33 7.9 N 39 52 21 28 1010.6 1010.4 0.0
29/07:30pm 19.3 11.2 3.1 34 7.6 N 35 50 19 27 1011.3 1011.2 0.0
29/07:00pm 19.3 11.8 3.5 35 7.5 N 32 39 17 21 1011.6 1011.5 0.0
29/06:30pm 20.2 12.7 3.4 33 8.0 N 32 41 17 22 1011.9 1011.8 0.0
29/06:00pm 20.5 13.4 3.3 32 8.2 N 30 41 16 22 1011.2 1011.1 0.0
29/05:30pm 21.0 13.5 3.7 32 8.4 N 32 39 17 21 1011.1 1010.9 0.0
29/05:00pm 21.7 14.1 3.9 31 8.7 N 33 46 18 25 1011.3 1011.2 0.0
29/04:30pm 22.5 15.5 4.1 30 9.1 NNW 30 43 16 23 1011.6 1011.5 0.0
29/04:23pm 22.4 15.0 4.0 30 9.0 NNW 32 50 17 27 1011.7 1011.6 0.0
29/04:00pm 22.7 14.3 3.8 29 9.3 NNW 37 50 20 27 1011.6 1011.5 0.0
29/03:33pm 23.3 14.9 3.8 28 9.6 NNW 37 56 20 30 1011.6 1011.5 0.0
29/03:30pm 23.5 14.8 4.0 28 9.7 NNW 39 56 21 30 1011.6 1011.5 0.0
29/03:00pm 23.5 15.0 3.4 27 9.8 NNW 37 52 20 28 1011.9 1011.8 0.0
29/02:40pm 23.2 14.6 2.7 26 9.9 NNW 37 56 20 30 1012.1 1011.9 0.0
29/02:30pm 23.4 14.5 2.8 26 10.0 NNW 39 54 21 29 1012.2 1012.0 0.0
29/02:04pm 23.2 14.2 2.7 26 9.9 NNW 39 57 21 31 1012.2 1012.0 0.0
29/02:00pm 23.4 14.1 2.8 26 10.0 NNW 41 57 22 31 1012.2 1012.0 0.0
29/01:30pm 22.3 13.3 2.4 27 9.5 NNW 39 54 21 29 1012.7 1012.5 0.0
29/01:13pm 22.5 13.4 2.1 26 9.7 NNW 39 57 21 31 1013.4 1013.2 0.0
29/01:00pm 21.4 12.0 0.0 24 9.7 NNW 39 54 21 29 1013.7 1013.5 0.0
29/12:30pm 20.6 10.2 2.0 29 8.7 N 46 65 25 35 1014.0 1013.8 0.0
29/12:10pm 20.2 9.9 2.5 31 8.3 N 46 65 25 35 1014.4 1014.2 0.0
29/12:00pm 19.9 8.8 2.7 32 8.1 N 50 65 27 35 1014.6 1014.4 0.0
29/11:46am 19.7 8.7 3.0 33 7.9 N 50 70 27 38 1014.7 1014.5 0.0
29/11:30am 20.2 8.9 3.4 33 8.0 N 52 69 28 37 1015.3 1015.1 0.0
29/11:11am 19.7 9.9 3.4 34 7.8 NNW 44 63 24 34 1016.0 1015.9 0.0
29/11:00am 19.5 8.9 3.2 34 7.7 N 48 61 26 33 1016.3 1016.2 0.0
29/10:46am 18.9 9.2 3.1 35 7.4 NNW 43 61 23 33 1016.4 1016.3 0.0
29/10:30am 18.9 7.9 3.1 35 7.4 N 50 65 27 35 1016.4 1016.3 0.0
29/10:13am 18.7 7.7 2.9 35 7.4 N 50 69 27 37 1016.5 1016.4 0.0
29/10:00am 18.5 7.2 3.2 36 7.2 N 52 67 28 36 1016.7 1016.6 0.0
29/09:40am 17.3 7.0 2.5 37 6.8 N 46 65 25 35 1017.0 1016.9 0.0
29/09:30am 17.2 6.5 2.4 37 6.8 N 48 61 26 33 1017.1 1017.0 0.0
29/09:00am 16.5 5.8 2.5 39 6.4 N 48 65 26 35 1017.0 1016.9 0.0
29/08:33am 16.2 5.6 2.9 41 6.1 N 48 69 26 37 1016.9 1016.8 0.0
29/08:30am 15.9 6.0 3.0 42 5.9 N 44 59 24 32 1016.9 1016.8 0.0
29/08:00am 15.3 4.6 2.8 43 5.7 N 48 65 26 35 1016.7 1016.6 0.0
29/07:30am 14.1 3.3 1.7 43 5.4 N 48 61 26 33 1016.6 1016.5 0.0
29/07:00am 13.8 3.6 0.8 41 5.6 N 44 56 24 30 1016.5 1016.4 0.0
29/06:30am 14.1 3.0 0.0 38 6.0 N 48 67 26 36 1016.4 1016.3 0.0
29/06:25am 14.0 2.9 -0.1 38 5.9 N 48 67 26 36 1016.5 1016.4 0.0
29/06:00am 14.2 2.7 0.1 38 6.0 N 50 59 27 32 1016.4 1016.3 0.0
29/05:30am 14.1 4.1 0.7 40 5.7 N 43 57 23 31 1016.7 1016.6 0.0
29/05:00am 13.9 3.3 0.9 41 5.6 N 46 61 25 33 1016.9 1016.8 0.0
29/04:30am 13.6 3.3 0.6 41 5.5 N 44 56 24 30 1017.1 1017.0 0.0
29/04:00am 13.8 4.1 0.8 41 5.6 N 41 54 22 29 1017.3 1017.2 0.0
29/03:30am 14.6 6.5 0.8 39 6.0 N 33 44 18 24 1017.8 1017.7 0.0
29/03:00am 15.2 8.0 1.0 38 6.2 N 28 39 15 21 1018.2 1018.0 0.0
29/02:30am 15.3 9.9 1.4 39 6.1 N 19 26 10 14 1018.9 1018.7 0.0
29/02:00am 14.9 11.1 1.8 41 5.8 NNW 11 20 6 11 1019.2 1019.0 0.0
29/01:30am 15.0 10.8 1.5 40 5.9 NNW 13 19 7 10 1019.5 1019.3 0.0
29/01:00am 14.4 9.5 1.7 42 5.6 NNW 17 22 9 12 1019.6 1019.4 0.0
29/12:30am 14.6 9.4 2.2 43 5.5 N 19 24 10 13 1019.8 1019.6 0.0
29/12:00am 14.8 9.3 2.0 42 5.7 N 20 28 11 15 1020.1 1019.9 0.0
 
Date/Time
CST
Temp
°C
App
Temp
°C
Dew
Point
°C
Rel
Hum
%
Delta-T
°C
Wind Press
QNH
hPa
Press
MSL
hPa
Rain since
9am
mm
Dir  Spd
km/h
Gust
km/h
Spd
kts
Gust
kts
28/11:30pm 14.7 9.0 2.6 44 5.4 N 22 28 12 15 1020.3 1020.1 0.0
28/11:00pm 15.5 9.3 2.3 41 5.9 N 24 33 13 18 1020.4 1020.2 0.0
28/10:30pm 15.5 9.6 2.0 40 6.0 N 22 28 12 15 1020.6 1020.4 0.0
28/10:00pm 14.4 9.9 2.0 43 5.5 N 15 19 8 10 1021.0 1020.9 0.0
28/09:30pm 14.0 11.9 1.6 43 5.4 ENE 2 13 1 7 1021.4 1021.3 0.0
28/09:00pm 14.5 12.0 1.4 41 5.7 E 4 7 2 4 1021.5 1021.4 0.0
28/08:30pm 16.1 13.0 1.4 37 6.5 NW 7 13 4 7 1021.7 1021.6 0.0
28/08:00pm 16.4 13.5 1.3 36 6.7 NNE 6 9 3 5 1021.6 1021.5 0.0
28/07:30pm 17.1 12.1 1.1 34 7.1 N 17 22 9 12 1021.4 1021.3 0.0
28/07:00pm 17.7 12.8 1.7 34 7.2 N 17 22 9 12 1021.2 1021.1 0.0
28/06:30pm 17.6 12.9 1.2 33 7.3 N 15 19 8 10 1021.0 1020.9 0.0
28/06:00pm 18.0 13.3 0.6 31 7.7 N 15 17 8 9 1020.9 1020.8 0.0
28/05:30pm 19.3 14.9 0.4 28 8.4 N 13 17 7 9 1020.8 1020.6 0.0
28/05:00pm 21.5 16.4 0.7 25 9.5 N 17 22 9 12 1020.7 1020.5 0.0
28/04:30pm 22.6 17.1 0.4 23 10.2 N 19 24 10 13 1020.5 1020.3 0.0
28/04:00pm 23.2 17.4 -0.3 21 10.7 N 20 24 11 13 1020.5 1020.3 0.0
28/03:30pm 23.9 17.3 -0.4 20 11.1 N 24 32 13 17 1020.6 1020.4 0.0
28/03:00pm 23.7 17.8 -0.6 20 11.0 N 20 33 11 18 1020.6 1020.4 0.0
28/02:30pm 23.9 17.7 -0.4 20 11.1 N 22 32 12 17 1020.8 1020.6 0.0
28/02:00pm 23.5 17.3 -0.1 21 10.8 N 22 35 12 19 1021.1 1021.0 0.0
28/01:30pm 23.5 17.1 1.2 23 10.4 N 24 33 13 18 1021.5 1021.4 0.0
28/01:00pm 23.3 17.4 1.6 24 10.2 NNW 22 32 12 17 1022.0 1021.9 0.0
28/12:30pm 23.6 17.6 1.3 23 10.4 N 22 30 12 16 1022.5 1022.4 0.0
28/12:00pm 22.4 15.7 1.4 25 9.8 NNW 26 37 14 20 1023.2 1023.1 0.0
28/11:30am 22.7 16.5 2.2 26 9.7 N 24 32 13 17 1023.8 1023.7 0.0
28/11:00am 22.2 15.6 2.3 27 9.4 N 26 37 14 20 1024.3 1024.1 0.0
28/10:30am 21.6 15.8 2.3 28 9.1 NNW 22 30 12 16 1024.6 1024.4 0.0
28/10:00am 20.3 14.9 2.2 30 8.4 NNW 20 28 11 15 1024.9 1024.7 0.0
28/09:30am 18.8 13.0 2.2 33 7.6 NNW 22 32 12 17 1025.0 1024.8 0.0
28/09:00am 17.7 11.4 1.7 34 7.2 N 24 30 13 16 1024.9 1024.7 0.0
28/08:30am 17.0 10.4 1.8 36 6.8 N 26 32 14 17 1024.7 1024.5 0.0
28/08:00am 15.7 9.9 2.2 40 6.1 NNW 22 30 12 16 1024.4 1024.2 0.0
28/07:30am 14.6 8.7 1.8 42 5.6 NNW 22 28 12 15 1024.3 1024.1 0.0
28/07:00am 14.6 9.2 2.2 43 5.5 NNW 20 26 11 14 1024.3 1024.1 0.0
28/06:30am 14.7 9.3 2.3 43 5.5 N 20 26 11 14 1024.1 1023.9 0.0
28/06:00am 14.7 8.8 1.9 42 5.6 N 22 26 12 14 1023.9 1023.8 0.0
28/05:30am 14.5 9.1 2.4 44 5.4 N 20 22 11 12 1023.8 1023.7 0.0
28/05:00am 14.7 9.5 2.3 43 5.5 NNW 19 22 10 12 1023.7 1023.6 0.0
28/04:30am 15.4 10.5 2.2 41 5.9 NNW 17 20 9 11 1023.8 1023.7 0.0
28/04:00am 15.4 10.1 1.9 40 6.0 NNW 19 22 10 12 1023.9 1023.8 0.0
28/03:30am 15.5 10.2 2.0 40 6.0 NNW 19 24 10 13 1024.1 1023.9 0.0
28/03:00am 15.7 10.4 1.8 39 6.2 NNW 19 22 10 12 1024.2 1024.0 0.0
28/02:30am 15.7 10.4 1.8 39 6.2 NNW 19 22 10 12 1024.2 1024.0 0.0
28/02:00am 15.7 10.8 1.8 39 6.2 NNW 17 22 9 12 1024.2 1024.0 0.0
28/01:30am 15.6 10.3 1.7 39 6.1 NNW 19 22 10 12 1024.3 1024.1 0.0
28/01:00am 15.7 10.3 2.2 40 6.1 NNW 20 24 11 13 1024.3 1024.1 0.0
28/12:30am 15.9 10.5 2.3 40 6.1 NNW 20 24 11 13 1024.4 1024.2 0.0
28/12:00am 15.9 10.7 2.3 40 6.1 NNW 19 22 10 12 1024.4 1024.2 0.0
 
Date/Time
CST
Temp
°C
App
Temp
°C
Dew
Point
°C
Rel
Hum
%
Delta-T
°C
Wind Press
QNH
hPa
Press
MSL
hPa
Rain since
9am
mm
Dir  Spd
km/h
Gust
km/h
Spd
kts
Gust
kts
27/11:30pm 16.1 10.9 2.2 39 6.2 NNW 19 22 10 12 1024.5 1024.3 0.0
27/11:00pm 16.7 11.3 2.3 38 6.5 NNW 20 24 11 13 1024.6 1024.4 0.0
27/10:30pm 16.9 11.5 2.5 38 6.5 NNW 20 24 11 13 1024.7 1024.5 0.0
27/10:00pm 16.0 10.4 3.4 43 5.8 N 22 24 12 13 1024.7 1024.5 0.0
27/09:30pm 15.5 10.9 3.6 45 5.5 N 17 19 9 10 1024.8 1024.6 0.0
27/09:00pm 16.0 12.6 3.8 44 5.7 N 11 13 6 7 1024.8 1024.6 0.0
27/08:30pm 16.1 11.9 3.9 44 5.7 N 15 17 8 9 1024.6 1024.4 0.0
27/08:00pm 15.8 11.9 3.6 44 5.7 N 13 19 7 10 1024.4 1024.2 0.0
27/07:30pm 16.6 13.2 4.0 43 5.9 NNE 11 17 6 9 1024.3 1024.1 0.0

Other formats

Comma delimited format used in spreadsheet applications
http://www.bom.gov.au/fwo/IDS60801/IDS60801.94662.axf

JavaScript Object Notation format (JSON) in row-major order
http://www.bom.gov.au/fwo/IDS60801/IDS60801.94662.json

Data quality

Most of these data are generated automatically and are frequently updated. Quality checks on data are not normally performed. It is possible for incorrect values to appear. Refer to information at About Latest Weather Observations and please check the disclaimer before using these data.